createdAt,value
2023-03-06T00:01:07.981Z,20
2023-03-06T00:03:56.018Z,7
2023-03-06T00:06:43.676Z,10
2023-03-06T00:09:31.561Z,4
2023-03-06T00:12:19.509Z,14
2023-03-06T00:15:07.238Z,11
2023-03-06T00:17:55.087Z,16
2023-03-06T00:20:43.000Z,14
2023-03-06T00:23:30.686Z,12
2023-03-06T00:26:18.415Z,11
2023-03-06T00:29:06.106Z,14
2023-03-06T00:31:53.849Z,13
2023-03-06T00:34:41.731Z,11
2023-03-06T00:37:29.648Z,10
2023-03-06T00:40:17.204Z,17
2023-03-06T00:43:04.955Z,8
2023-03-06T00:45:52.747Z,11
2023-03-06T00:48:40.675Z,8
2023-03-06T00:51:28.302Z,21
2023-03-06T00:54:16.241Z,9
2023-03-06T00:57:04.177Z,16
2023-03-06T00:59:52.167Z,3
2023-03-06T01:02:39.900Z,18
2023-03-06T01:05:27.835Z,15
2023-03-06T01:08:15.663Z,11
2023-03-06T01:11:03.558Z,6
2023-03-06T01:13:51.331Z,13
2023-03-06T01:16:39.182Z,17
2023-03-06T01:19:27.009Z,9
2023-03-06T01:22:14.898Z,11
2023-03-06T01:25:02.747Z,9
2023-03-06T01:27:50.705Z,6
2023-03-06T01:30:38.288Z,12
2023-03-06T01:33:26.124Z,17
2023-03-06T01:36:13.915Z,14
2023-03-06T01:39:01.792Z,12
2023-03-06T01:41:49.434Z,7
2023-03-06T01:44:37.306Z,10
2023-03-06T01:47:25.037Z,13
2023-03-06T01:50:12.875Z,12
2023-03-06T01:53:00.528Z,14
2023-03-06T01:55:48.443Z,5
2023-03-06T01:58:36.095Z,7
2023-03-06T02:01:24.073Z,10
2023-03-06T02:04:11.789Z,9
2023-03-06T02:06:59.485Z,8
2023-03-06T02:09:47.305Z,11
2023-03-06T02:12:35.036Z,14
2023-03-06T02:15:22.743Z,16
2023-03-06T02:18:10.705Z,5
2023-03-06T02:20:58.594Z,12
2023-03-06T02:23:46.375Z,9
2023-03-06T02:26:34.157Z,13
2023-03-06T02:29:22.046Z,10
2023-03-06T02:32:09.987Z,12
2023-03-06T02:34:58.326Z,10
2023-03-06T02:37:46.320Z,14
2023-03-06T02:40:34.228Z,13
2023-03-06T02:43:21.874Z,9
2023-03-06T02:46:09.714Z,7
2023-03-06T02:48:57.623Z,12
2023-03-06T02:51:46.174Z,18
2023-03-06T02:54:33.934Z,2
2023-03-06T02:57:21.818Z,12
2023-03-06T03:00:09.443Z,2
2023-03-06T03:02:58.489Z,11
2023-03-06T03:05:46.158Z,16
2023-03-06T03:08:34.081Z,6
2023-03-06T03:11:21.807Z,8
2023-03-06T03:14:09.589Z,8
2023-03-06T03:16:57.419Z,4
2023-03-06T03:19:45.152Z,13
2023-03-06T03:22:32.911Z,18
2023-03-06T03:25:20.630Z,10
2023-03-06T03:28:08.305Z,11
2023-03-06T03:30:56.052Z,14
2023-03-06T03:33:43.933Z,13
2023-03-06T03:36:31.806Z,14
2023-03-06T03:39:19.674Z,11
2023-03-06T03:42:07.683Z,15
2023-03-06T03:44:55.324Z,11
2023-03-06T03:47:43.362Z,10
2023-03-06T03:50:31.004Z,14
2023-03-06T03:53:18.761Z,3
2023-03-06T03:56:06.471Z,8
2023-03-06T03:58:54.481Z,9
2023-03-06T04:01:42.717Z,9
2023-03-06T04:04:30.757Z,7
2023-03-06T04:07:18.757Z,12
2023-03-06T04:10:06.531Z,9
2023-03-06T04:12:54.326Z,14
2023-03-06T04:15:42.153Z,11
2023-03-06T04:18:30.085Z,5
2023-03-06T04:21:17.768Z,12
2023-03-06T04:24:05.539Z,13
2023-03-06T04:26:53.183Z,9
2023-03-06T04:29:41.096Z,13
2023-03-06T04:32:28.980Z,13
2023-03-06T04:35:16.980Z,11
2023-03-06T04:38:04.839Z,4
2023-03-06T04:40:53.078Z,5
2023-03-06T04:43:41.211Z,8
2023-03-06T04:46:29.069Z,16
2023-03-06T04:49:16.878Z,7
2023-03-06T04:52:04.715Z,11
2023-03-06T04:54:52.654Z,10
2023-03-06T04:57:40.597Z,10
2023-03-06T05:00:28.370Z,3
2023-03-06T05:03:16.367Z,12
2023-03-06T05:06:04.346Z,13
2023-03-06T05:08:52.182Z,13
2023-03-06T05:11:39.874Z,4
2023-03-06T05:14:27.722Z,18
2023-03-06T05:17:15.422Z,3
2023-03-06T05:20:03.289Z,11
2023-03-06T05:22:51.139Z,16
2023-03-06T05:25:38.980Z,13
2023-03-06T05:28:26.706Z,12
2023-03-06T05:31:14.438Z,17
2023-03-06T05:34:02.439Z,21
2023-03-06T05:36:50.294Z,27
2023-03-06T05:39:38.770Z,43
2023-03-06T05:42:28.550Z,62
2023-03-06T05:45:16.416Z,95
2023-03-06T05:48:04.367Z,130
2023-03-06T05:50:52.003Z,177
2023-03-06T05:53:39.823Z,210
2023-03-06T05:56:27.715Z,274
2023-03-06T05:59:15.509Z,312
2023-03-06T06:02:05.976Z,328
2023-03-06T06:04:54.141Z,380
2023-03-06T06:07:42.030Z,433
2023-03-06T06:10:29.869Z,431
2023-03-06T06:13:17.845Z,450
2023-03-06T06:16:05.609Z,502
2023-03-06T06:18:53.470Z,584
2023-03-06T06:21:41.349Z,594
2023-03-06T06:24:29.128Z,644
2023-03-06T06:27:16.967Z,621
2023-03-06T06:30:04.817Z,647
2023-03-06T06:32:52.898Z,657
2023-03-06T06:35:40.635Z,653
2023-03-06T06:38:28.336Z,675
2023-03-06T06:41:46.518Z,735
2023-03-06T06:44:58.624Z,790
2023-03-06T06:47:46.456Z,792
2023-03-06T06:50:37.545Z,831
2023-03-06T06:53:28.277Z,875
2023-03-06T06:56:16.077Z,894
2023-03-06T06:59:15.923Z,893
2023-03-06T07:02:04.526Z,901
2023-03-06T07:05:03.384Z,903
2023-03-06T07:07:51.894Z,901
2023-03-06T07:10:39.677Z,910
2023-03-06T07:13:27.564Z,901
2023-03-06T07:16:15.472Z,907
2023-03-06T07:19:03.343Z,900
2023-03-06T07:21:51.289Z,902
2023-03-06T07:24:39.104Z,904
2023-03-06T07:27:26.968Z,894
2023-03-06T07:30:15.070Z,905
2023-03-06T07:33:02.731Z,909
2023-03-06T07:35:50.819Z,909
2023-03-06T07:38:38.735Z,917
2023-03-06T07:41:26.623Z,929
2023-03-06T07:44:14.462Z,922
2023-03-06T07:47:02.607Z,926
2023-03-06T07:49:50.284Z,941
2023-03-06T07:52:38.110Z,942
2023-03-06T07:55:25.926Z,945
2023-03-06T07:58:13.839Z,957
2023-03-06T08:01:01.724Z,961
2023-03-06T08:03:49.684Z,949
2023-03-06T08:06:37.596Z,938
2023-03-06T08:09:25.454Z,949
2023-03-06T08:12:15.164Z,952
2023-03-06T08:15:04.169Z,946
2023-03-06T08:17:51.955Z,945
2023-03-06T08:20:39.944Z,933
2023-03-06T08:23:27.873Z,927
2023-03-06T08:26:15.935Z,920
2023-03-06T08:29:03.906Z,918
2023-03-06T08:31:52.144Z,895
2023-03-06T08:34:40.494Z,896
2023-03-06T08:37:28.419Z,913
2023-03-06T08:40:16.317Z,904
2023-03-06T08:43:04.641Z,897
2023-03-06T08:45:52.708Z,908
2023-03-06T08:48:40.639Z,910
2023-03-06T08:51:28.631Z,918
2023-03-06T08:54:16.509Z,908
2023-03-06T08:57:04.499Z,925
2023-03-06T08:59:52.511Z,933
2023-03-06T09:02:43.006Z,952
2023-03-06T09:05:30.969Z,968
2023-03-06T09:08:18.643Z,977
2023-03-06T09:11:06.527Z,976
2023-03-06T09:13:54.244Z,984
2023-03-06T09:16:42.420Z,973
2023-03-06T09:19:30.504Z,978
2023-03-06T09:22:18.752Z,977
2023-03-06T09:25:06.616Z,985
2023-03-06T09:28:08.948Z,967
2023-03-06T09:30:58.209Z,964
2023-03-06T09:33:46.183Z,975
2023-03-06T09:36:42.862Z,975
2023-03-06T09:39:37.193Z,982
2023-03-06T09:42:25.181Z,970
2023-03-06T09:45:13.214Z,977
2023-03-06T09:48:01.361Z,969
2023-03-06T09:50:49.457Z,951
2023-03-06T09:53:40.067Z,953
2023-03-06T09:56:28.038Z,930
2023-03-06T09:59:15.957Z,943
2023-03-06T10:02:04.139Z,950
2023-03-06T10:04:52.473Z,949
2023-03-06T10:07:40.426Z,940
2023-03-06T10:10:28.382Z,960
2023-03-06T10:13:16.220Z,985
2023-03-06T10:16:04.001Z,973
2023-03-06T10:18:51.988Z,972
2023-03-06T10:21:39.875Z,980
2023-03-06T10:24:27.685Z,1002
2023-03-06T10:27:15.712Z,995
2023-03-06T10:30:04.224Z,981
2023-03-06T10:32:52.401Z,982
2023-03-06T10:35:40.571Z,969
2023-03-06T10:38:28.721Z,997
2023-03-06T10:41:16.538Z,987
2023-03-06T10:44:06.006Z,975
2023-03-06T10:46:53.916Z,974
2023-03-06T10:49:41.904Z,1010
2023-03-06T10:52:29.585Z,1009
2023-03-06T10:55:17.493Z,1013
2023-03-06T10:58:05.389Z,1009
2023-03-06T11:00:53.286Z,1012
2023-03-06T11:03:41.278Z,1011
2023-03-06T11:06:29.266Z,1011
2023-03-06T11:09:16.946Z,996
2023-03-06T11:12:04.681Z,998
2023-03-06T11:14:52.520Z,1004
2023-03-06T11:17:40.599Z,1013
2023-03-06T11:20:29.211Z,988
2023-03-06T11:23:19.707Z,999
2023-03-06T11:26:07.482Z,1003
2023-03-06T11:28:55.603Z,1001
2023-03-06T11:31:43.575Z,1011
2023-03-06T11:34:32.063Z,1002
2023-03-06T11:37:19.901Z,992
2023-03-06T11:40:07.841Z,984
2023-03-06T11:42:55.617Z,984
2023-03-06T11:45:43.495Z,1010
2023-03-06T11:48:31.465Z,1014
2023-03-06T11:51:19.846Z,1001
2023-03-06T11:54:07.671Z,1002
2023-03-06T11:56:55.500Z,1002
2023-03-06T11:59:43.333Z,999
2023-03-06T12:02:32.102Z,1005
2023-03-06T12:05:20.080Z,998
2023-03-06T12:08:08.282Z,986
2023-03-06T12:10:56.215Z,987
2023-03-06T12:13:44.358Z,998
2023-03-06T12:16:32.264Z,996
2023-03-06T12:19:20.332Z,989
2023-03-06T12:22:07.984Z,1000
2023-03-06T12:24:55.737Z,1004
2023-03-06T12:27:43.472Z,1011
2023-03-06T12:30:31.097Z,1010
2023-03-06T12:33:18.733Z,1007
2023-03-06T12:36:06.462Z,1009
2023-03-06T12:38:56.828Z,1010
2023-03-06T12:41:44.696Z,1010
2023-03-06T12:44:43.285Z,997
2023-03-06T12:47:31.133Z,994
2023-03-06T12:50:18.804Z,986
2023-03-06T12:53:06.637Z,992
2023-03-06T12:55:54.338Z,995
2023-03-06T12:58:42.144Z,996
2023-03-06T13:01:29.775Z,992
2023-03-06T13:04:17.588Z,995
2023-03-06T13:07:05.397Z,995
2023-03-06T13:09:53.239Z,990
2023-03-06T13:12:40.986Z,991
2023-03-06T13:15:28.723Z,985
2023-03-06T13:18:16.428Z,991
2023-03-06T13:21:04.039Z,987
2023-03-06T13:23:51.730Z,1004
2023-03-06T13:26:39.418Z,1011
2023-03-06T13:29:27.158Z,1005
2023-03-06T13:32:15.170Z,992
2023-03-06T13:35:02.964Z,993
2023-03-06T13:37:50.855Z,987
2023-03-06T13:40:38.529Z,981
2023-03-06T13:43:26.369Z,1002
2023-03-06T13:46:14.203Z,991
2023-03-06T13:49:02.190Z,1001
2023-03-06T13:51:49.873Z,1007
2023-03-06T13:54:37.544Z,1006
2023-03-06T13:57:25.178Z,1006
2023-03-06T14:00:12.856Z,1010
2023-03-06T14:03:00.738Z,1005
2023-03-06T14:05:48.976Z,1007
2023-03-06T14:08:36.829Z,1001
2023-03-06T14:11:24.604Z,1003
2023-03-06T14:14:12.279Z,998
2023-03-06T14:17:00.182Z,1001
2023-03-06T14:19:47.969Z,1007
2023-03-06T14:22:35.949Z,1006
2023-03-06T14:25:23.721Z,994
2023-03-06T14:28:14.161Z,1001
2023-03-06T14:31:02.129Z,981
2023-03-06T14:33:50.040Z,986
2023-03-06T14:36:37.805Z,985
2023-03-06T14:39:25.558Z,972
2023-03-06T14:42:13.258Z,970
2023-03-06T14:45:00.885Z,971
2023-03-06T14:47:48.605Z,973
2023-03-06T14:50:36.381Z,981
2023-03-06T14:53:24.211Z,967
2023-03-06T14:56:12.071Z,986
2023-03-06T14:58:59.741Z,977
2023-03-06T15:01:47.616Z,986
2023-03-06T15:04:35.409Z,986
2023-03-06T15:07:23.296Z,987
2023-03-06T15:10:11.097Z,986
2023-03-06T15:12:58.961Z,987
2023-03-06T15:15:46.637Z,989
2023-03-06T15:18:34.569Z,987
2023-03-06T15:21:22.309Z,979
2023-03-06T15:24:09.993Z,977
2023-03-06T15:26:57.916Z,966
2023-03-06T15:29:45.862Z,971
2023-03-06T15:32:33.897Z,966
2023-03-06T15:35:21.852Z,964
2023-03-06T15:38:09.725Z,963
2023-03-06T15:41:00.135Z,956
2023-03-06T15:43:47.884Z,952
2023-03-06T15:46:35.838Z,938
2023-03-06T15:49:28.943Z,935
2023-03-06T15:52:16.576Z,928
2023-03-06T15:55:04.310Z,919
2023-03-06T15:57:52.199Z,906
2023-03-06T16:00:40.018Z,892
2023-03-06T16:03:28.041Z,861
2023-03-06T16:06:17.130Z,827
2023-03-06T16:09:05.124Z,787
2023-03-06T16:11:53.060Z,799
2023-03-06T16:14:40.888Z,854
2023-03-06T16:17:28.603Z,866
2023-03-06T16:20:16.558Z,885
2023-03-06T16:23:04.338Z,909
2023-03-06T16:25:52.324Z,907
2023-03-06T16:28:40.055Z,891
2023-03-06T16:31:28.155Z,884
2023-03-06T16:34:16.008Z,891
2023-03-06T16:37:04.121Z,883
2023-03-06T16:39:51.676Z,881
2023-03-06T16:42:39.427Z,866
2023-03-06T16:45:27.271Z,867
2023-03-06T16:48:15.305Z,845
2023-03-06T16:51:02.953Z,823
2023-03-06T16:53:50.920Z,789
2023-03-06T16:56:38.496Z,775
2023-03-06T16:59:26.239Z,768
2023-03-06T17:02:13.973Z,751
2023-03-06T17:05:01.778Z,723
2023-03-06T17:07:49.470Z,637
2023-03-06T17:10:37.364Z,551
2023-03-06T17:13:25.049Z,518
2023-03-06T17:16:12.816Z,489
2023-03-06T17:19:00.563Z,474
2023-03-06T17:21:48.756Z,432
2023-03-06T17:24:36.508Z,377
2023-03-06T17:27:24.425Z,296
2023-03-06T17:30:12.111Z,233
2023-03-06T17:32:59.940Z,175
2023-03-06T17:35:47.689Z,99
2023-03-06T17:38:35.789Z,73
2023-03-06T17:41:23.458Z,48
2023-03-06T17:44:11.537Z,39
2023-03-06T17:46:59.213Z,40
2023-03-06T17:49:47.003Z,32
2023-03-06T17:52:34.853Z,34
2023-03-06T17:55:22.673Z,15
2023-03-06T17:58:12.343Z,14
2023-03-06T18:01:00.228Z,20
2023-03-06T18:03:48.162Z,10
2023-03-06T18:06:35.946Z,15
2023-03-06T18:09:23.704Z,7
2023-03-06T18:12:11.437Z,18
2023-03-06T18:14:59.015Z,17
2023-03-06T18:17:46.955Z,5
2023-03-06T18:20:34.608Z,11
2023-03-06T18:23:22.359Z,18
2023-03-06T18:26:10.069Z,7
2023-03-06T18:28:57.760Z,17
2023-03-06T18:31:45.426Z,17
2023-03-06T18:34:33.421Z,19
2023-03-06T18:37:21.304Z,11
2023-03-06T18:40:08.930Z,15
2023-03-06T18:42:56.616Z,17
2023-03-06T18:45:44.415Z,10
2023-03-06T18:48:32.498Z,18
2023-03-06T18:51:20.478Z,11
2023-03-06T18:54:08.084Z,13
2023-03-06T18:56:55.835Z,15
2023-03-06T18:59:43.533Z,9
2023-03-06T19:02:31.352Z,11
2023-03-06T19:05:19.077Z,10
2023-03-06T19:08:06.875Z,14
2023-03-06T19:10:54.555Z,17
2023-03-06T19:13:42.326Z,16
2023-03-06T19:16:30.420Z,13
2023-03-06T19:19:18.302Z,15
2023-03-06T19:22:06.129Z,11
2023-03-06T19:24:54.022Z,9
2023-03-06T19:27:41.698Z,17
2023-03-06T19:30:29.556Z,20
2023-03-06T19:33:17.130Z,15
2023-03-06T19:36:04.915Z,17
2023-03-06T19:38:53.426Z,18
2023-03-06T19:41:41.334Z,4
2023-03-06T19:44:28.916Z,14
2023-03-06T19:47:16.666Z,21
2023-03-06T19:50:04.269Z,9
2023-03-06T19:52:52.080Z,36
2023-03-06T19:55:39.883Z,6
2023-03-06T19:58:27.952Z,19
2023-03-06T20:01:15.952Z,19
2023-03-06T20:04:04.134Z,7
2023-03-06T20:06:52.023Z,17
2023-03-06T20:09:39.698Z,13
2023-03-06T20:12:27.511Z,13
2023-03-06T20:15:15.358Z,7
2023-03-06T20:18:03.299Z,24
2023-03-06T20:20:50.946Z,40
2023-03-06T20:23:38.854Z,11
2023-03-06T20:26:26.749Z,14
2023-03-06T20:29:14.400Z,12
2023-03-06T20:32:02.156Z,10
2023-03-06T20:34:50.093Z,21
2023-03-06T20:37:37.822Z,13
2023-03-06T20:40:25.440Z,12
2023-03-06T20:43:13.078Z,18
2023-03-06T20:46:00.879Z,17
2023-03-06T20:48:49.171Z,18
2023-03-06T20:51:36.918Z,10
2023-03-06T20:54:24.684Z,18
2023-03-06T20:57:12.509Z,19
2023-03-06T21:00:00.201Z,22
2023-03-06T21:02:48.024Z,15
2023-03-06T21:05:35.965Z,14
2023-03-06T21:08:23.647Z,15
2023-03-06T21:11:11.378Z,11
2023-03-06T21:13:58.957Z,17
2023-03-06T21:16:46.741Z,20
2023-03-06T21:19:34.509Z,14
2023-03-06T21:22:22.367Z,13
2023-03-06T21:25:10.044Z,9
2023-03-06T21:27:57.926Z,13
2023-03-06T21:30:45.717Z,20
2023-03-06T21:33:33.800Z,13
2023-03-06T21:36:24.901Z,8
2023-03-06T21:39:12.704Z,12
2023-03-06T21:42:00.423Z,15
2023-03-06T21:44:48.259Z,15
2023-03-06T21:47:36.099Z,10
2023-03-06T21:50:24.086Z,9
2023-03-06T21:53:11.739Z,16
2023-03-06T21:55:59.598Z,14
2023-03-06T21:58:47.383Z,9
2023-03-06T22:01:35.271Z,4
2023-03-06T22:04:23.077Z,11
2023-03-06T22:07:10.838Z,15
2023-03-06T22:09:58.623Z,17
2023-03-06T22:12:46.498Z,10
2023-03-06T22:15:34.184Z,10
2023-03-06T22:18:21.966Z,9
2023-03-06T22:21:09.689Z,19
2023-03-06T22:23:57.561Z,38
2023-03-06T22:26:45.337Z,14
2023-03-06T22:29:33.250Z,14
2023-03-06T22:32:21.107Z,10
2023-03-06T22:35:09.223Z,17
2023-03-06T22:37:57.002Z,10
2023-03-06T22:40:44.734Z,12
2023-03-06T22:43:32.498Z,18
2023-03-06T22:46:20.505Z,17
2023-03-06T22:49:08.234Z,18
2023-03-06T22:51:56.073Z,14
2023-03-06T22:54:43.699Z,9
2023-03-06T22:57:31.538Z,22
2023-03-06T23:00:19.195Z,13
2023-03-06T23:03:07.514Z,18
2023-03-06T23:05:55.096Z,17
2023-03-06T23:08:42.790Z,14
2023-03-06T23:11:30.407Z,19
2023-03-06T23:14:18.234Z,18
2023-03-06T23:17:06.660Z,14
2023-03-06T23:19:54.625Z,13
2023-03-06T23:22:42.227Z,11
2023-03-06T23:25:29.899Z,11
2023-03-06T23:28:17.571Z,18
2023-03-06T23:31:05.619Z,9
2023-03-06T23:33:53.616Z,9
2023-03-06T23:36:42.502Z,8
2023-03-06T23:39:30.238Z,12
2023-03-06T23:42:18.194Z,14
2023-03-06T23:45:05.957Z,17
2023-03-06T23:47:53.889Z,16
2023-03-06T23:50:41.658Z,13
2023-03-06T23:53:29.661Z,17
2023-03-06T23:56:17.650Z,10
2023-03-06T23:59:05.563Z,17
